createdAt,value
2018-11-12T00:02:15.793Z,79.72
2018-11-12T00:04:50.138Z,79.33
2018-11-12T00:07:26.459Z,79.31
2018-11-12T00:10:02.020Z,79.50
2018-11-12T00:12:37.764Z,79.68
2018-11-12T00:15:12.711Z,79.76
2018-11-12T00:17:48.145Z,79.93
2018-11-12T00:20:24.273Z,79.71
2018-11-12T00:22:58.937Z,79.64
2018-11-12T00:25:34.918Z,79.39
2018-11-12T00:28:10.411Z,79.29
2018-11-12T00:30:45.606Z,79.38
2018-11-12T00:33:20.236Z,79.26
2018-11-12T00:35:55.161Z,79.49
2018-11-12T00:38:29.618Z,79.51
2018-11-12T00:41:04.366Z,79.62
2018-11-12T00:43:39.886Z,79.60
2018-11-12T00:46:15.495Z,79.40
2018-11-12T00:48:50.110Z,79.43
2018-11-12T00:51:24.576Z,79.37
2018-11-12T00:57:02.195Z,79.52
2018-11-12T00:59:36.918Z,79.57
2018-11-12T01:04:59.385Z,79.49
2018-11-12T01:07:35.108Z,79.29
2018-11-12T01:10:12.739Z,79.56
2018-11-12T01:12:48.161Z,79.43
2018-11-12T01:15:25.264Z,79.49
2018-11-12T01:18:01.509Z,79.40
2018-11-12T01:20:36.469Z,79.36
2018-11-12T01:23:12.583Z,79.41
2018-11-12T01:25:47.416Z,79.44
2018-11-12T01:28:23.504Z,79.07
2018-11-12T01:31:07.828Z,79.06
2018-11-12T01:33:44.517Z,79.40
2018-11-12T01:36:20.052Z,79.42
2018-11-12T01:38:56.351Z,79.69
2018-11-12T01:41:31.359Z,79.46
2018-11-12T01:44:07.214Z,79.17
2018-11-12T01:46:41.826Z,78.98
2018-11-12T01:49:17.245Z,78.98
2018-11-12T01:51:51.942Z,79.05
2018-11-12T01:54:26.859Z,78.89
2018-11-12T01:57:01.970Z,79.17
2018-11-12T02:02:20.980Z,78.83
2018-11-12T02:04:56.715Z,78.73
2018-11-12T02:07:31.653Z,78.72
2018-11-12T02:10:06.927Z,78.86
2018-11-12T02:12:42.223Z,78.79
2018-11-12T02:15:18.069Z,78.90
2018-11-12T02:17:53.178Z,78.86
2018-11-12T02:20:28.603Z,78.62
2018-11-12T02:23:03.379Z,78.69
2018-11-12T02:25:38.087Z,78.74
2018-11-12T02:28:12.816Z,78.87
2018-11-12T02:30:48.924Z,78.74
2018-11-12T02:33:24.887Z,78.65
2018-11-12T02:36:00.557Z,79.12
2018-11-12T02:38:36.604Z,79.37
2018-11-12T02:41:11.291Z,79.28
2018-11-12T02:43:47.380Z,79.19
2018-11-12T02:46:22.287Z,79.16
2018-11-12T02:48:56.688Z,79.10
2018-11-12T02:51:32.717Z,79.18
2018-11-12T02:54:07.434Z,78.82
2018-11-12T02:56:42.278Z,78.95
2018-11-12T02:59:17.009Z,78.65
2018-11-12T03:01:53.007Z,78.77
2018-11-12T03:04:27.763Z,78.82
2018-11-12T03:07:02.796Z,78.64
2018-11-12T03:09:38.576Z,78.68
2018-11-12T03:12:14.602Z,79.02
2018-11-12T03:14:49.266Z,79.18
2018-11-12T03:17:23.644Z,79.32
2018-11-12T03:19:58.958Z,79.22
2018-11-12T03:22:33.757Z,79.06
2018-11-12T03:25:11.606Z,78.99
2018-11-12T03:27:46.695Z,79.02
2018-11-12T03:30:22.201Z,78.83
2018-11-12T03:32:57.734Z,78.74
2018-11-12T03:35:32.434Z,78.76
2018-11-12T03:38:08.086Z,78.67
2018-11-12T03:40:43.542Z,78.79
2018-11-12T03:43:19.140Z,78.78
2018-11-12T03:45:53.894Z,78.50
2018-11-12T03:48:28.956Z,78.55
2018-11-12T03:51:04.031Z,78.43
2018-11-12T03:53:37.978Z,78.33
2018-11-12T03:56:12.933Z,78.41
2018-11-12T03:58:48.147Z,78.33
2018-11-12T04:04:05.009Z,77.94
2018-11-12T04:06:41.257Z,77.97
2018-11-12T04:09:16.304Z,78.01
2018-11-12T04:11:52.064Z,77.97
2018-11-12T04:14:27.224Z,77.94
2018-11-12T04:17:02.994Z,78.20
2018-11-12T04:22:28.438Z,77.85
2018-11-12T04:25:03.777Z,77.89
2018-11-12T04:27:39.572Z,77.74
2018-11-12T04:32:52.936Z,77.48
2018-11-12T04:35:28.619Z,77.08
2018-11-12T04:38:03.276Z,77.03
2018-11-12T04:40:37.943Z,76.94
2018-11-12T04:48:37.808Z,77.11
2018-11-12T04:51:13.514Z,76.95
2018-11-12T04:53:48.549Z,76.89
2018-11-12T04:56:24.642Z,77.00
2018-11-12T04:58:59.669Z,77.04
2018-11-12T05:01:35.410Z,76.77
2018-11-12T05:06:53.807Z,76.62
2018-11-12T05:09:28.819Z,76.61
2018-11-12T05:12:04.122Z,76.81
2018-11-12T05:14:39.772Z,76.84
2018-11-12T05:17:14.452Z,76.88
2018-11-12T05:19:49.135Z,76.98
2018-11-12T05:22:23.905Z,77.11
2018-11-12T05:24:59.655Z,77.26
2018-11-12T05:27:34.379Z,77.26
2018-11-12T05:30:15.558Z,77.26
2018-11-12T05:32:50.572Z,77.19
2018-11-12T05:35:25.854Z,77.11
2018-11-12T05:40:44.288Z,76.88
2018-11-12T05:43:19.088Z,76.67
2018-11-12T05:45:54.872Z,76.60
2018-11-12T05:48:30.131Z,76.58
2018-11-12T05:51:05.109Z,76.52
2018-11-12T05:53:40.276Z,76.58
2018-11-12T05:56:14.903Z,76.51
2018-11-12T05:58:50.549Z,76.36
2018-11-12T06:01:26.022Z,76.32
2018-11-12T06:04:01.402Z,76.22
2018-11-12T06:06:36.523Z,76.14
2018-11-12T06:09:12.820Z,76.02
2018-11-12T06:11:48.385Z,75.78
2018-11-12T06:14:23.636Z,75.92
2018-11-12T06:16:58.572Z,76.10
2018-11-12T06:19:34.390Z,76.29
2018-11-12T06:22:10.383Z,76.47
2018-11-12T06:24:46.201Z,76.69
2018-11-12T06:27:20.871Z,76.68
2018-11-12T06:29:55.258Z,76.51
2018-11-12T06:32:30.437Z,76.36
2018-11-12T06:35:05.737Z,76.63
2018-11-12T06:37:41.323Z,76.54
2018-11-12T06:40:17.470Z,76.43
2018-11-12T06:42:51.887Z,76.38
2018-11-12T06:45:26.941Z,76.42
2018-11-12T06:48:02.140Z,76.49
2018-11-12T06:50:37.274Z,76.35
2018-11-12T06:53:12.876Z,76.07
2018-11-12T06:55:47.578Z,76.12
2018-11-12T06:58:23.418Z,75.95
2018-11-12T07:00:58.803Z,76.01
2018-11-12T07:03:33.084Z,76.27
2018-11-12T07:06:08.350Z,76.01
2018-11-12T07:08:43.791Z,76.32
2018-11-12T07:11:19.016Z,76.28
2018-11-12T07:13:54.591Z,76.33
2018-11-12T07:16:32.593Z,76.63
2018-11-12T07:19:07.763Z,76.70
2018-11-12T07:21:42.312Z,77.25
2018-11-12T07:29:40.802Z,77.32
2018-11-12T07:32:15.474Z,77.49
2018-11-12T07:37:32.169Z,77.45
2018-11-12T07:40:07.858Z,77.41
2018-11-12T07:42:44.264Z,77.57
2018-11-12T07:48:06.916Z,77.40
2018-11-12T07:50:42.452Z,77.36
2018-11-12T07:53:18.592Z,77.14
2018-11-12T07:58:39.378Z,77.04
2018-11-12T08:01:14.828Z,77.07
2018-11-12T08:03:49.293Z,76.99
2018-11-12T08:09:06.361Z,76.27
2018-11-12T08:11:42.949Z,75.93
2018-11-12T08:14:17.915Z,75.37
2018-11-12T08:16:52.710Z,74.57
2018-11-12T08:19:28.317Z,74.33
2018-11-12T08:22:04.677Z,73.81
2018-11-12T08:24:40.627Z,73.72
2018-11-12T08:27:14.904Z,73.50
2018-11-12T08:29:49.614Z,73.57
2018-11-12T08:32:25.049Z,73.36
2018-11-12T08:35:01.004Z,73.38
2018-11-12T08:37:37.052Z,73.26
2018-11-12T08:40:14.838Z,73.18
2018-11-12T08:42:50.171Z,73.10
2018-11-12T08:45:24.588Z,73.21
2018-11-12T08:47:59.570Z,72.97
2018-11-12T08:50:34.281Z,72.98
2018-11-12T08:53:10.092Z,72.65
2018-11-12T08:55:44.847Z,72.47
2018-11-12T08:58:21.212Z,72.27
2018-11-12T09:00:56.556Z,72.21
2018-11-12T09:03:31.122Z,72.42
2018-11-12T09:06:06.705Z,72.29
2018-11-12T09:11:23.664Z,72.29
2018-11-12T09:13:58.398Z,72.01
2018-11-12T09:16:34.013Z,70.23
2018-11-12T09:19:08.982Z,69.28
2018-11-12T09:21:43.812Z,69.90
2018-11-12T09:24:19.095Z,69.67
2018-11-12T09:26:54.855Z,69.24
2018-11-12T09:35:30.895Z,68.67
2018-11-12T09:38:05.403Z,68.16
2018-11-12T09:40:40.301Z,66.58
2018-11-12T09:43:15.395Z,65.45
2018-11-12T09:45:51.268Z,64.01
2018-11-12T09:48:26.511Z,63.78
2018-11-12T09:51:01.448Z,64.33
2018-11-12T09:59:10.937Z,60.97
2018-11-12T10:01:46.935Z,60.03
2018-11-12T10:04:23.335Z,58.56
2018-11-12T10:06:57.654Z,58.46
2018-11-12T10:09:33.332Z,57.60
2018-11-12T10:17:40.382Z,55.94
2018-11-12T10:20:12.975Z,55.03
2018-11-12T10:28:16.255Z,51.30
2018-11-12T10:30:51.817Z,50.19
2018-11-12T10:33:26.880Z,50.24
2018-11-12T10:38:55.016Z,48.73
2018-11-12T10:41:29.494Z,47.69
2018-11-12T10:44:04.490Z,47.19
2018-11-12T10:49:26.419Z,46.21
2018-11-12T10:52:02.252Z,44.75
2018-11-12T10:57:25.700Z,44.66
2018-11-12T11:00:00.387Z,43.45
2018-11-12T11:08:23.793Z,42.88
2018-11-12T11:10:59.334Z,43.05
2018-11-12T11:13:35.133Z,42.55
2018-11-12T11:19:27.348Z,42.81
2018-11-12T11:22:01.982Z,42.61
2018-11-12T11:27:18.593Z,43.46
2018-11-12T11:29:53.922Z,43.79
2018-11-12T11:32:30.004Z,43.56
2018-11-12T11:37:51.744Z,44.62
2018-11-12T11:40:27.740Z,44.90
2018-11-12T11:43:02.326Z,44.83
2018-11-12T11:48:20.680Z,44.55
2018-11-12T11:50:57.346Z,44.93
2018-11-12T11:53:32.591Z,45.12
2018-11-12T11:58:53.284Z,46.34
2018-11-12T12:01:29.703Z,46.68
2018-11-12T12:04:04.442Z,47.62
2018-11-12T12:12:13.011Z,49.65
2018-11-12T12:17:29.649Z,50.57
2018-11-12T12:20:05.551Z,50.75
2018-11-12T12:22:41.480Z,51.43
2018-11-12T12:28:00.746Z,52.27
2018-11-12T12:30:36.435Z,52.17
2018-11-12T12:33:10.770Z,51.54
2018-11-12T12:38:37.702Z,52.27
2018-11-12T12:41:13.647Z,52.04
2018-11-12T12:43:49.099Z,52.01
2018-11-12T12:49:06.507Z,51.22
2018-11-12T12:51:41.378Z,51.14
2018-11-12T12:54:16.296Z,50.42
2018-11-12T12:59:34.297Z,49.02
2018-11-12T13:02:09.008Z,48.20
2018-11-12T13:07:32.974Z,47.07
2018-11-12T13:10:09.241Z,46.71
2018-11-12T13:12:44.060Z,46.92
2018-11-12T13:18:02.128Z,46.90
2018-11-12T13:20:37.322Z,47.36
2018-11-12T13:23:12.375Z,47.66
2018-11-12T13:28:29.804Z,48.41
2018-11-12T13:31:05.189Z,48.87
2018-11-12T13:33:39.822Z,49.60
2018-11-12T13:38:57.157Z,50.38
2018-11-12T13:41:32.722Z,50.93
2018-11-12T13:44:07.324Z,51.03
2018-11-12T13:49:38.131Z,52.10
2018-11-12T13:52:12.767Z,52.95
2018-11-12T13:57:29.496Z,53.53
2018-11-12T14:00:04.524Z,53.60
2018-11-12T14:02:39.796Z,53.91
2018-11-12T14:08:07.397Z,54.89
2018-11-12T14:10:43.182Z,54.84
2018-11-12T14:13:17.584Z,55.08
2018-11-12T14:18:34.626Z,56.51
2018-11-12T14:21:09.362Z,59.05
2018-11-12T14:23:43.928Z,61.75
2018-11-12T14:29:06.024Z,63.59
2018-11-12T14:31:41.523Z,63.99
2018-11-12T14:34:16.295Z,64.38
2018-11-12T14:39:42.916Z,65.10
2018-11-12T14:42:18.777Z,65.22
2018-11-12T14:47:36.674Z,65.42
2018-11-12T14:50:12.034Z,65.96
2018-11-12T14:52:50.214Z,66.34
2018-11-12T14:58:19.461Z,67.26
2018-11-12T15:00:54.776Z,67.39
2018-11-12T15:03:29.628Z,67.61
2018-11-12T15:08:53.821Z,68.27
2018-11-12T15:11:29.188Z,68.72
2018-11-12T15:14:04.356Z,69.17
2018-11-12T15:19:30.017Z,68.90
2018-11-12T15:27:52.659Z,70.27
2018-11-12T15:30:28.342Z,70.57
2018-11-12T15:33:02.795Z,70.98
2018-11-12T15:38:21.040Z,70.88
2018-11-12T15:43:38.552Z,70.40
2018-11-12T15:49:01.065Z,70.50
2018-11-12T15:51:35.669Z,70.72
2018-11-12T15:54:12.198Z,70.62
2018-11-12T15:59:29.276Z,70.78
2018-11-12T16:02:03.611Z,70.91
2018-11-12T16:07:33.646Z,71.41
2018-11-12T16:10:11.555Z,71.38
2018-11-12T16:12:46.356Z,71.52
2018-11-12T16:15:21.654Z,71.40
2018-11-12T16:20:41.517Z,71.69
2018-11-12T16:23:15.999Z,71.54
2018-11-12T16:28:33.436Z,71.32
2018-11-12T16:31:09.484Z,71.65
2018-11-12T16:33:44.687Z,71.46
2018-11-12T16:39:10.708Z,71.38
2018-11-12T16:41:45.592Z,71.68
2018-11-12T16:44:20.313Z,71.96
2018-11-12T16:49:37.968Z,71.50
2018-11-12T16:52:12.746Z,71.64
2018-11-12T16:57:29.827Z,72.07
2018-11-12T17:00:04.472Z,72.07
2018-11-12T17:02:39.140Z,72.02
2018-11-12T17:07:59.449Z,72.00
2018-11-12T17:10:34.434Z,71.96
2018-11-12T17:13:08.872Z,72.11
2018-11-12T17:18:35.265Z,72.14
2018-11-12T17:21:09.686Z,72.11
2018-11-12T17:23:44.232Z,72.11
2018-11-12T17:29:08.126Z,71.98
2018-11-12T17:31:42.906Z,72.23
2018-11-12T17:34:18.324Z,72.11
2018-11-12T17:39:40.273Z,71.77
2018-11-12T17:42:15.183Z,71.55
2018-11-12T17:47:33.544Z,71.56
2018-11-12T17:50:09.890Z,71.31
2018-11-12T17:52:44.596Z,71.40
2018-11-12T17:58:01.658Z,71.49
2018-11-12T18:03:19.963Z,71.51
2018-11-12T18:05:54.293Z,71.51
2018-11-12T18:11:25.021Z,71.08
2018-11-12T18:13:59.842Z,71.07
2018-11-12T18:19:24.417Z,71.42
2018-11-12T18:21:59.090Z,71.55
2018-11-12T18:27:17.216Z,71.36
2018-11-12T18:29:54.054Z,71.43
2018-11-12T18:32:29.069Z,71.83
2018-11-12T18:37:47.262Z,71.54
2018-11-12T18:40:23.989Z,71.49
2018-11-12T18:42:59.135Z,71.18
2018-11-12T18:48:15.758Z,71.08
2018-11-12T18:50:50.619Z,71.08
2018-11-12T18:53:25.706Z,71.07
2018-11-12T18:58:42.675Z,71.11
2018-11-12T19:01:17.732Z,71.14
2018-11-12T19:03:52.761Z,71.12
2018-11-12T19:09:12.754Z,71.26
2018-11-12T19:11:47.187Z,71.48
2018-11-12T19:14:22.377Z,71.32
2018-11-12T19:19:39.864Z,70.98
2018-11-12T19:22:15.367Z,70.83
2018-11-12T19:27:34.265Z,71.23
2018-11-12T19:30:20.941Z,71.42
2018-11-12T19:32:55.378Z,71.72
2018-11-12T19:38:16.525Z,71.18
2018-11-12T19:40:52.174Z,70.93
2018-11-12T19:43:27.195Z,70.76
2018-11-12T19:48:43.996Z,70.90
2018-11-12T19:51:19.316Z,70.71
2018-11-12T19:53:55.361Z,70.66
2018-11-12T19:59:12.116Z,71.24
2018-11-12T20:01:47.427Z,70.99
2018-11-12T20:04:22.342Z,70.93
2018-11-12T20:09:40.554Z,71.38
2018-11-12T20:12:14.809Z,71.67
2018-11-12T20:17:33.955Z,71.28
2018-11-12T20:20:16.471Z,71.39
2018-11-12T20:22:51.579Z,71.41
2018-11-12T20:28:10.066Z,71.41
2018-11-12T20:30:44.633Z,71.33
2018-11-12T20:33:19.466Z,71.46
2018-11-12T20:38:41.855Z,71.49
2018-11-12T20:41:16.537Z,71.26
2018-11-12T20:43:51.376Z,71.23
2018-11-12T20:49:17.645Z,71.42
2018-11-12T20:51:51.792Z,71.39
2018-11-12T20:54:26.379Z,71.44
2018-11-12T20:59:43.757Z,71.56
2018-11-12T21:02:19.688Z,71.55
2018-11-12T21:07:45.698Z,71.62
2018-11-12T21:10:21.282Z,71.43
2018-11-12T21:12:56.139Z,71.50
2018-11-12T21:18:14.055Z,71.36
2018-11-12T21:23:40.009Z,71.59
2018-11-12T21:26:15.024Z,71.45
2018-11-12T21:28:50.787Z,71.39
2018-11-12T21:34:06.963Z,71.71
2018-11-12T21:39:25.167Z,71.39
2018-11-12T21:42:00.347Z,71.28
2018-11-12T21:47:39.266Z,71.14
2018-11-12T21:50:16.439Z,71.09
2018-11-12T21:58:27.605Z,71.48
2018-11-12T22:01:02.635Z,71.41
2018-11-12T22:09:20.164Z,72.39
2018-11-12T22:11:54.475Z,72.20
2018-11-12T22:20:07.640Z,71.62
2018-11-12T22:22:43.514Z,71.94
2018-11-12T22:30:53.936Z,71.84
2018-11-12T22:33:28.666Z,71.66
2018-11-12T22:41:39.483Z,71.55
2018-11-12T22:44:14.944Z,71.61
2018-11-12T22:52:33.755Z,71.39
2018-11-12T22:57:51.547Z,71.35
2018-11-12T23:00:31.209Z,71.46
2018-11-12T23:09:19.385Z,72.15
2018-11-12T23:11:53.733Z,71.87
2018-11-12T23:20:17.655Z,71.96
2018-11-12T23:22:53.418Z,71.98
2018-11-12T23:31:07.586Z,72.03
2018-11-12T23:33:42.352Z,71.96
2018-11-12T23:41:55.312Z,72.25
2018-11-12T23:44:29.666Z,72.01
2018-11-12T23:52:42.259Z,72.56
2018-11-12T23:58:03.467Z,72.36
